createdAt,value
2022-12-20T00:01:32.059Z,30.33
2022-12-20T00:04:03.562Z,33.20
2022-12-20T00:06:31.122Z,45.43
2022-12-20T00:09:00.464Z,45.33
2022-12-20T00:11:28.767Z,44.57
2022-12-20T00:13:56.319Z,38.43
2022-12-20T00:16:26.217Z,43.20
2022-12-20T00:18:56.773Z,49.50
2022-12-20T00:21:24.594Z,35.37
2022-12-20T00:23:53.071Z,47.40
2022-12-20T00:26:23.280Z,38.70
2022-12-20T00:28:51.249Z,58.10
2022-12-20T00:31:20.531Z,37.03
2022-12-20T00:33:49.438Z,48.57
2022-12-20T00:36:18.157Z,36.60
2022-12-20T00:38:48.100Z,46.53
2022-12-20T00:41:18.925Z,38.13
2022-12-20T00:43:46.398Z,42.33
2022-12-20T00:46:15.250Z,35.17
2022-12-20T00:48:42.707Z,39.27
2022-12-20T00:51:15.760Z,35.33
2022-12-20T00:53:43.704Z,30.93
2022-12-20T00:56:12.479Z,36.43
2022-12-20T00:58:41.309Z,45.20
2022-12-20T01:01:21.635Z,34.10
2022-12-20T01:03:49.961Z,40.17
2022-12-20T01:06:18.253Z,29.03
2022-12-20T01:08:45.964Z,39.83
2022-12-20T01:11:16.231Z,27.23
2022-12-20T01:13:46.547Z,39.00
2022-12-20T01:16:25.867Z,37.80
2022-12-20T01:18:54.385Z,31.17
2022-12-20T01:21:24.015Z,36.23
2022-12-20T01:23:51.719Z,33.57
2022-12-20T01:26:22.295Z,31.43
2022-12-20T01:28:54.313Z,34.50
2022-12-20T01:31:22.057Z,35.57
2022-12-20T01:33:50.797Z,23.07
2022-12-20T01:36:27.197Z,33.23
2022-12-20T01:39:00.252Z,36.93
2022-12-20T01:41:28.264Z,32.17
2022-12-20T01:44:07.341Z,31.23
2022-12-20T01:46:39.691Z,25.70
2022-12-20T01:49:30.621Z,42.43
2022-12-20T01:52:03.718Z,35.47
2022-12-20T01:54:32.651Z,40.60
2022-12-20T01:57:06.223Z,39.00
2022-12-20T01:59:35.625Z,33.63
2022-12-20T02:02:07.579Z,32.03
2022-12-20T02:04:35.191Z,31.77
2022-12-20T02:07:03.535Z,38.13
2022-12-20T02:09:32.492Z,26.87
2022-12-20T02:12:10.990Z,31.33
2022-12-20T02:14:44.509Z,34.83
2022-12-20T02:17:30.567Z,25.53
2022-12-20T02:20:13.106Z,24.80
2022-12-20T02:22:55.939Z,29.63
2022-12-20T02:25:53.108Z,24.03
2022-12-20T02:28:59.900Z,32.93
2022-12-20T02:31:33.400Z,24.43
2022-12-20T02:34:03.175Z,29.20
2022-12-20T02:36:30.650Z,26.17
2022-12-20T02:38:58.052Z,23.87
2022-12-20T02:41:30.734Z,26.07
2022-12-20T02:44:26.302Z,28.30
2022-12-20T02:46:55.184Z,30.97
2022-12-20T02:49:25.782Z,21.43
2022-12-20T02:51:54.158Z,24.90
2022-12-20T02:54:21.894Z,26.00
2022-12-20T02:57:16.510Z,18.33
2022-12-20T02:59:57.894Z,19.33
2022-12-20T03:02:26.744Z,18.93
2022-12-20T03:04:55.375Z,26.93
2022-12-20T03:07:23.652Z,22.67
2022-12-20T03:09:51.395Z,23.07
2022-12-20T03:12:18.759Z,30.00
2022-12-20T03:14:46.194Z,23.60
2022-12-20T03:17:15.564Z,22.77
2022-12-20T03:19:43.200Z,17.70
2022-12-20T03:22:11.520Z,17.60
2022-12-20T03:24:38.990Z,22.00
2022-12-20T03:27:11.367Z,18.20
2022-12-20T03:29:39.236Z,29.63
2022-12-20T03:32:06.939Z,21.00
2022-12-20T03:34:34.327Z,20.83
2022-12-20T03:37:02.359Z,25.73
2022-12-20T03:39:29.811Z,24.60
2022-12-20T03:41:57.328Z,20.80
2022-12-20T03:44:25.429Z,23.87
2022-12-20T03:46:53.057Z,18.00
2022-12-20T03:49:21.509Z,23.13
2022-12-20T03:51:51.468Z,18.07
2022-12-20T03:54:19.255Z,16.40
2022-12-20T03:57:07.327Z,14.00
2022-12-20T03:59:35.641Z,13.63
2022-12-20T04:02:04.656Z,13.07
2022-12-20T04:04:32.291Z,17.73
2022-12-20T04:06:59.692Z,19.20
2022-12-20T04:09:27.552Z,26.60
2022-12-20T04:12:01.906Z,18.00
2022-12-20T04:14:31.125Z,16.37
2022-12-20T04:16:58.730Z,24.80
2022-12-20T04:19:26.133Z,20.20
2022-12-20T04:22:02.640Z,23.77
2022-12-20T04:24:40.594Z,28.17
2022-12-20T04:27:19.418Z,22.93
2022-12-20T04:29:47.335Z,20.97
2022-12-20T04:32:17.290Z,22.23
2022-12-20T04:34:44.732Z,24.97
2022-12-20T04:37:12.100Z,25.27
2022-12-20T04:39:47.243Z,15.73
2022-12-20T04:42:24.929Z,19.83
2022-12-20T04:44:54.073Z,24.57
2022-12-20T04:47:25.342Z,26.07
2022-12-20T04:49:54.030Z,19.23
2022-12-20T04:52:47.133Z,17.93
2022-12-20T04:55:15.544Z,19.53
2022-12-20T04:57:42.925Z,14.07
2022-12-20T05:00:11.156Z,14.10
2022-12-20T05:02:43.563Z,17.20
2022-12-20T05:05:14.537Z,23.60
2022-12-20T05:07:48.150Z,20.30
2022-12-20T05:10:15.568Z,17.07
2022-12-20T05:12:44.720Z,13.50
2022-12-20T05:15:19.344Z,15.33
2022-12-20T05:17:46.909Z,11.57
2022-12-20T05:20:14.607Z,16.60
2022-12-20T05:23:02.896Z,16.33
2022-12-20T05:25:48.855Z,15.33
2022-12-20T05:28:17.169Z,20.40
2022-12-20T05:30:44.610Z,13.80
2022-12-20T05:33:12.887Z,21.37
2022-12-20T05:35:42.830Z,14.10
2022-12-20T05:38:13.026Z,15.33
2022-12-20T05:40:41.473Z,20.10
2022-12-20T05:43:09.982Z,16.80
2022-12-20T05:45:51.808Z,14.07
2022-12-20T05:48:25.889Z,17.27
2022-12-20T05:50:53.925Z,16.43
2022-12-20T05:53:30.149Z,22.10
2022-12-20T05:56:01.382Z,17.33
2022-12-20T05:58:34.764Z,16.67
2022-12-20T06:01:06.890Z,14.33
2022-12-20T06:03:39.067Z,18.63
2022-12-20T06:06:14.745Z,12.47
2022-12-20T06:08:45.369Z,19.93
2022-12-20T06:11:18.688Z,18.03
2022-12-20T06:13:51.356Z,18.13
2022-12-20T06:16:20.681Z,15.33
2022-12-20T06:18:48.452Z,14.73
2022-12-20T06:21:17.000Z,13.43
2022-12-20T06:23:45.163Z,11.17
2022-12-20T06:26:14.384Z,11.50
2022-12-20T06:28:52.702Z,13.70
2022-12-20T06:31:34.906Z,14.27
2022-12-20T06:34:02.380Z,16.90
2022-12-20T06:36:34.193Z,13.07
2022-12-20T06:39:07.603Z,22.03
2022-12-20T06:41:40.943Z,13.60
2022-12-20T06:44:08.552Z,18.07
2022-12-20T06:46:36.167Z,19.90
2022-12-20T06:49:04.213Z,15.03
2022-12-20T06:51:32.783Z,12.50
2022-12-20T06:54:01.145Z,16.30
2022-12-20T06:56:36.036Z,24.00
2022-12-20T06:59:09.512Z,18.87
2022-12-20T07:01:36.929Z,13.80
2022-12-20T07:04:04.719Z,16.70
2022-12-20T07:06:32.329Z,17.43
2022-12-20T07:09:00.134Z,20.80
2022-12-20T07:11:27.489Z,18.00
2022-12-20T07:13:58.845Z,19.47
2022-12-20T07:16:26.416Z,11.27
2022-12-20T07:18:55.423Z,18.73
2022-12-20T07:21:22.887Z,10.83
2022-12-20T07:23:50.253Z,10.63
2022-12-20T07:26:17.608Z,13.73
2022-12-20T07:28:45.075Z,13.77
2022-12-20T07:31:12.448Z,12.70
2022-12-20T07:33:40.356Z,13.07
2022-12-20T07:36:13.550Z,21.80
2022-12-20T07:38:40.867Z,18.37
2022-12-20T07:41:13.782Z,17.40
2022-12-20T07:43:41.333Z,18.57
2022-12-20T07:46:12.957Z,20.90
2022-12-20T07:48:40.446Z,22.10
2022-12-20T07:51:34.376Z,18.90
2022-12-20T07:54:11.477Z,23.47
2022-12-20T07:56:42.010Z,23.63
2022-12-20T07:59:12.247Z,19.30
2022-12-20T08:01:40.817Z,25.00
2022-12-20T08:04:13.432Z,23.00
2022-12-20T08:06:41.925Z,17.53
2022-12-20T08:09:12.611Z,19.17
2022-12-20T08:11:42.055Z,14.47
2022-12-20T08:14:10.141Z,15.83
2022-12-20T08:16:37.691Z,41.47
2022-12-20T08:19:05.295Z,37.40
2022-12-20T08:21:32.705Z,26.93
2022-12-20T08:24:00.088Z,36.57
2022-12-20T08:26:27.731Z,32.07
2022-12-20T08:28:55.593Z,33.33
2022-12-20T08:31:23.445Z,142.17
2022-12-20T08:33:50.910Z,56.23
2022-12-20T08:36:18.326Z,118.50
2022-12-20T08:38:45.697Z,35.63
2022-12-20T08:41:15.152Z,93.30
2022-12-20T08:43:43.563Z,207.07
2022-12-20T08:46:14.692Z,243.20
2022-12-20T08:48:42.103Z,120.60
2022-12-20T08:51:12.219Z,83.67
2022-12-20T08:53:40.051Z,84.27
2022-12-20T08:56:13.996Z,33.63
2022-12-20T08:58:42.736Z,24.03
2022-12-20T09:01:12.961Z,28.20
2022-12-20T09:03:41.040Z,23.13
2022-12-20T09:06:10.989Z,26.50
2022-12-20T09:08:39.564Z,24.27
2022-12-20T09:11:07.732Z,31.33
2022-12-20T09:13:43.118Z,36.17
2022-12-20T09:16:12.986Z,35.53
2022-12-20T09:18:40.531Z,31.50
2022-12-20T09:21:09.059Z,28.07
2022-12-20T09:23:37.590Z,21.30
2022-12-20T09:26:07.011Z,35.40
2022-12-20T09:28:34.754Z,21.13
2022-12-20T09:31:07.753Z,24.13
2022-12-20T09:33:36.544Z,11.40
2022-12-20T09:36:04.329Z,20.50
2022-12-20T09:38:32.801Z,16.17
2022-12-20T09:41:03.669Z,13.53
2022-12-20T09:43:32.061Z,23.00
2022-12-20T09:46:02.082Z,18.30
2022-12-20T09:48:39.831Z,18.27
2022-12-20T09:51:27.381Z,19.93
2022-12-20T09:54:31.230Z,14.20
2022-12-20T09:57:08.000Z,13.83
2022-12-20T09:59:40.391Z,18.40
2022-12-20T10:02:44.562Z,14.37
2022-12-20T10:05:02.196Z,21.73
2022-12-20T10:08:04.356Z,21.30
2022-12-20T10:10:41.713Z,25.63
2022-12-20T10:13:42.108Z,20.83
2022-12-20T10:16:18.973Z,130.80
2022-12-20T10:18:59.417Z,62.93
2022-12-20T10:21:33.638Z,94.90
2022-12-20T10:24:10.599Z,27.87
2022-12-20T10:26:37.961Z,77.30
2022-12-20T10:29:05.347Z,102.23
2022-12-20T10:31:32.741Z,33.93
2022-12-20T10:34:00.239Z,15.00
2022-12-20T10:36:29.680Z,31.53
2022-12-20T10:39:08.833Z,40.77
2022-12-20T10:41:45.015Z,29.67
2022-12-20T10:44:17.962Z,34.57
2022-12-20T10:46:48.427Z,30.23
2022-12-20T10:49:28.587Z,17.93
2022-12-20T10:52:01.886Z,20.90
2022-12-20T10:54:37.194Z,22.40
2022-12-20T10:57:28.158Z,19.50
2022-12-20T10:59:57.790Z,23.13
2022-12-20T11:02:37.099Z,19.40
2022-12-20T11:05:12.996Z,24.33
2022-12-20T11:10:41.935Z,20.10
2022-12-20T11:13:29.622Z,21.50
2022-12-20T11:16:01.531Z,18.20
2022-12-20T11:19:04.408Z,39.77
2022-12-20T11:21:58.969Z,35.03
2022-12-20T11:24:37.881Z,32.43
2022-12-20T11:28:04.517Z,33.60
2022-12-20T11:30:40.861Z,33.63
2022-12-20T11:33:14.396Z,30.80
2022-12-20T11:36:00.076Z,22.03
2022-12-20T11:38:30.760Z,27.10
2022-12-20T11:41:21.501Z,41.27
2022-12-20T11:44:28.928Z,46.10
2022-12-20T11:47:12.079Z,37.00
2022-12-20T11:50:12.033Z,29.03
2022-12-20T11:52:48.313Z,19.90
2022-12-20T11:55:33.345Z,26.57
2022-12-20T11:58:18.432Z,19.37
2022-12-20T12:01:02.089Z,20.83
2022-12-20T12:03:37.332Z,16.73
2022-12-20T12:06:21.401Z,24.00
2022-12-20T12:09:07.665Z,25.87
2022-12-20T12:14:48.128Z,48.47
2022-12-20T12:17:25.546Z,66.03
2022-12-20T12:19:55.895Z,41.00
2022-12-20T12:22:29.308Z,51.77
2022-12-20T12:24:59.572Z,33.30
2022-12-20T12:27:28.620Z,28.13
2022-12-20T12:29:57.926Z,28.47
2022-12-20T12:32:34.062Z,25.27
2022-12-20T12:35:07.335Z,24.87
2022-12-20T12:38:11.969Z,18.30
2022-12-20T12:40:53.169Z,23.80
2022-12-20T12:43:35.736Z,22.87
2022-12-20T12:46:14.247Z,15.93
2022-12-20T12:48:56.330Z,19.97
2022-12-20T12:51:28.460Z,26.50
2022-12-20T12:54:09.491Z,40.23
2022-12-20T12:56:44.607Z,23.30
2022-12-20T12:59:24.951Z,24.03
2022-12-20T13:01:56.002Z,31.40
2022-12-20T13:04:29.057Z,28.57
2022-12-20T13:06:58.077Z,31.53
2022-12-20T13:09:36.904Z,30.67
2022-12-20T13:12:36.898Z,51.80
2022-12-20T13:15:22.889Z,24.63
2022-12-20T13:18:01.628Z,39.13
2022-12-20T13:20:30.472Z,32.27
2022-12-20T13:23:12.910Z,30.17
2022-12-20T13:25:43.055Z,38.60
2022-12-20T13:28:23.538Z,40.47
2022-12-20T13:30:53.996Z,39.97
2022-12-20T13:33:40.080Z,34.80
2022-12-20T13:36:10.403Z,30.70
2022-12-20T13:38:39.849Z,30.03
2022-12-20T13:41:22.426Z,29.83
2022-12-20T13:43:51.576Z,21.63
2022-12-20T13:46:30.624Z,25.80
2022-12-20T13:49:03.046Z,18.43
2022-12-20T13:51:30.821Z,17.20
2022-12-20T13:53:58.774Z,30.60
2022-12-20T13:56:29.662Z,22.20
2022-12-20T13:58:58.802Z,18.67
2022-12-20T14:01:27.006Z,22.37
2022-12-20T14:03:54.913Z,33.17
2022-12-20T14:06:26.999Z,29.50
2022-12-20T14:08:54.731Z,15.77
2022-12-20T14:11:26.498Z,23.30
2022-12-20T14:13:59.187Z,14.77
2022-12-20T14:16:29.221Z,13.60
2022-12-20T14:19:07.983Z,8.40
2022-12-20T14:21:37.486Z,9.90
2022-12-20T14:24:05.171Z,8.07
2022-12-20T14:26:52.657Z,7.23
2022-12-20T14:29:25.152Z,12.63
2022-12-20T14:31:52.495Z,8.40
2022-12-20T14:34:33.099Z,50.40
2022-12-20T14:37:23.499Z,24.30
2022-12-20T14:40:09.651Z,28.10
2022-12-20T14:42:39.000Z,31.30
2022-12-20T14:45:10.770Z,31.60
2022-12-20T14:47:48.170Z,27.47
2022-12-20T14:50:24.795Z,28.37
2022-12-20T14:52:52.275Z,29.03
2022-12-20T14:55:33.137Z,32.43
2022-12-20T14:58:00.670Z,17.37
2022-12-20T15:00:30.675Z,35.73
2022-12-20T15:03:01.033Z,21.23
2022-12-20T15:05:43.549Z,29.33
2022-12-20T15:08:15.261Z,22.20
2022-12-20T15:10:49.834Z,22.20
2022-12-20T15:13:18.815Z,24.30
2022-12-20T15:15:46.389Z,36.63
2022-12-20T15:18:20.031Z,34.67
2022-12-20T15:20:50.021Z,25.33
2022-12-20T15:23:22.056Z,24.53
2022-12-20T15:25:50.073Z,22.53
2022-12-20T15:28:22.776Z,28.77
2022-12-20T15:30:51.849Z,72.50
2022-12-20T15:33:22.028Z,52.10
2022-12-20T15:35:49.730Z,53.67
2022-12-20T15:38:40.830Z,57.47
2022-12-20T15:41:17.878Z,63.07
2022-12-20T15:43:45.327Z,41.70
2022-12-20T15:46:12.983Z,30.53
2022-12-20T15:48:40.464Z,28.93
2022-12-20T15:51:21.761Z,44.20
2022-12-20T15:53:49.110Z,42.10
2022-12-20T15:56:21.826Z,31.33
2022-12-20T15:58:49.842Z,30.23
2022-12-20T16:01:23.154Z,45.77
2022-12-20T16:03:50.689Z,32.27
2022-12-20T16:06:18.379Z,30.20
2022-12-20T16:08:45.923Z,29.80
2022-12-20T16:11:28.223Z,28.40
2022-12-20T16:13:56.997Z,27.63
2022-12-20T16:16:28.992Z,20.20
2022-12-20T16:18:56.641Z,26.53
2022-12-20T16:21:30.897Z,25.40
2022-12-20T16:23:58.440Z,23.13
2022-12-20T16:26:26.801Z,24.50
2022-12-20T16:28:55.787Z,136.73
2022-12-20T16:31:30.986Z,69.90
2022-12-20T16:34:03.480Z,85.77
2022-12-20T16:36:31.411Z,32.80
2022-12-20T16:38:59.056Z,23.07
2022-12-20T16:41:28.530Z,22.33
2022-12-20T16:43:58.033Z,27.83
2022-12-20T16:46:27.543Z,20.40
2022-12-20T16:48:57.001Z,20.27
2022-12-20T16:51:40.427Z,20.90
2022-12-20T16:54:22.283Z,24.77
2022-12-20T16:56:56.774Z,18.07
2022-12-20T16:59:25.308Z,19.60
2022-12-20T17:01:55.271Z,27.47
2022-12-20T17:04:23.678Z,24.53
2022-12-20T17:06:51.286Z,37.10
2022-12-20T17:09:20.143Z,33.40
2022-12-20T17:11:50.196Z,40.60
2022-12-20T17:14:19.759Z,41.37
2022-12-20T17:16:47.285Z,31.60
2022-12-20T17:19:14.681Z,39.40
2022-12-20T17:24:32.475Z,32.03
2022-12-20T17:27:00.377Z,24.30
2022-12-20T17:29:27.923Z,22.33
2022-12-20T17:31:55.403Z,30.83
2022-12-20T17:34:24.993Z,29.33
2022-12-20T17:36:54.751Z,29.27
2022-12-20T17:39:22.749Z,34.13
2022-12-20T17:41:50.184Z,32.13
2022-12-20T17:44:18.975Z,31.93
2022-12-20T17:46:46.438Z,23.50
2022-12-20T17:49:14.159Z,28.07
2022-12-20T17:51:41.846Z,45.30
2022-12-20T17:54:18.532Z,42.03
2022-12-20T17:56:46.433Z,25.20
2022-12-20T17:59:14.726Z,21.53
2022-12-20T18:01:43.193Z,48.80
2022-12-20T18:04:13.741Z,78.47
2022-12-20T18:06:42.378Z,23.73
2022-12-20T18:09:27.959Z,68.10
2022-12-20T18:11:55.262Z,44.30
2022-12-20T18:14:22.648Z,53.60
2022-12-20T18:16:50.150Z,48.13
2022-12-20T18:19:18.606Z,39.17
2022-12-20T18:21:46.121Z,36.80
2022-12-20T18:24:14.722Z,44.80
2022-12-20T18:26:44.607Z,127.37
2022-12-20T18:29:12.165Z,44.40
2022-12-20T18:31:39.659Z,83.27
2022-12-20T18:34:07.514Z,100.07
2022-12-20T18:36:37.032Z,80.43
2022-12-20T18:39:06.426Z,112.43
2022-12-20T18:41:34.260Z,52.83
2022-12-20T18:44:03.611Z,41.83
2022-12-20T18:46:31.381Z,34.87
2022-12-20T18:49:00.618Z,30.23
2022-12-20T18:51:30.418Z,30.67
2022-12-20T18:53:58.681Z,27.57
2022-12-20T18:56:31.883Z,58.70
2022-12-20T18:59:07.884Z,42.87
2022-12-20T19:01:38.350Z,28.77
2022-12-20T19:04:07.545Z,21.90
2022-12-20T19:06:36.248Z,71.47
2022-12-20T19:09:06.184Z,44.87
2022-12-20T19:11:34.018Z,130.70
2022-12-20T19:14:01.599Z,116.67
2022-12-20T19:16:32.145Z,87.83
2022-12-20T19:19:00.850Z,66.27
2022-12-20T19:21:30.677Z,43.33
2022-12-20T19:24:00.326Z,27.37
2022-12-20T19:26:29.771Z,27.60
2022-12-20T19:28:57.790Z,26.77
2022-12-20T19:31:27.538Z,28.20
2022-12-20T19:34:00.343Z,44.37
2022-12-20T19:36:34.709Z,29.67
2022-12-20T19:39:05.500Z,23.17
2022-12-20T19:41:34.555Z,28.23
2022-12-20T19:44:02.640Z,53.33
2022-12-20T19:46:30.511Z,60.33
2022-12-20T19:48:59.332Z,58.53
2022-12-20T19:51:28.277Z,53.13
2022-12-20T19:53:56.986Z,54.30
2022-12-20T19:56:27.655Z,49.40
2022-12-20T19:58:55.629Z,49.00
2022-12-20T20:01:25.945Z,36.50
2022-12-20T20:03:58.660Z,25.60
2022-12-20T20:06:27.048Z,40.00
2022-12-20T20:08:57.584Z,27.70
2022-12-20T20:11:25.447Z,29.70
2022-12-20T20:13:52.856Z,30.53
2022-12-20T20:16:22.861Z,28.90
2022-12-20T20:18:50.687Z,27.47
2022-12-20T20:21:22.314Z,29.20
2022-12-20T20:23:54.091Z,21.07
2022-12-20T20:26:24.636Z,28.80
2022-12-20T20:28:52.391Z,25.10
2022-12-20T20:31:20.800Z,26.40
2022-12-20T20:33:48.278Z,19.97
2022-12-20T20:36:18.058Z,24.50
2022-12-20T20:38:45.734Z,52.47
2022-12-20T20:41:14.075Z,31.87
2022-12-20T20:43:41.738Z,30.00
2022-12-20T20:46:12.141Z,30.80
2022-12-20T20:48:40.329Z,36.43
2022-12-20T20:51:07.936Z,30.97
2022-12-20T20:53:35.838Z,22.83
2022-12-20T20:56:04.816Z,32.00
2022-12-20T20:58:32.984Z,58.13
2022-12-20T21:01:02.337Z,95.37
2022-12-20T21:03:30.927Z,40.83
2022-12-20T21:08:45.959Z,39.43
2022-12-20T21:11:13.593Z,34.40
2022-12-20T21:13:41.316Z,42.30
2022-12-20T21:16:16.053Z,38.67
2022-12-20T21:18:43.451Z,35.70
2022-12-20T21:21:12.521Z,48.00
2022-12-20T21:23:43.412Z,35.23
2022-12-20T21:26:10.781Z,30.73
2022-12-20T21:28:38.485Z,45.30
2022-12-20T21:31:09.638Z,33.90
2022-12-20T21:33:37.302Z,32.63
2022-12-20T21:36:13.921Z,98.67
2022-12-20T21:38:41.472Z,51.73
2022-12-20T21:41:12.364Z,32.40
2022-12-20T21:43:39.753Z,32.80
2022-12-20T21:46:11.392Z,35.37
2022-12-20T21:48:43.907Z,38.03
2022-12-20T21:51:15.324Z,23.33
2022-12-20T21:53:46.599Z,16.07
2022-12-20T21:56:15.875Z,35.57
2022-12-20T21:58:44.089Z,39.80
2022-12-20T22:01:14.354Z,31.50
2022-12-20T22:03:42.140Z,35.53
2022-12-20T22:06:10.681Z,37.00
2022-12-20T22:08:38.084Z,35.57
2022-12-20T22:11:07.564Z,45.30
2022-12-20T22:13:41.096Z,40.57
2022-12-20T22:16:11.396Z,31.97
2022-12-20T22:18:39.327Z,22.47
2022-12-20T22:21:09.351Z,18.63
2022-12-20T22:23:37.615Z,18.63
2022-12-20T22:26:07.577Z,26.63
2022-12-20T22:28:35.195Z,41.90
2022-12-20T22:31:10.573Z,45.13
2022-12-20T22:33:38.935Z,37.40
2022-12-20T22:36:07.697Z,29.30
2022-12-20T22:38:35.586Z,37.53
2022-12-20T22:41:09.823Z,26.80
2022-12-20T22:43:38.654Z,23.30
2022-12-20T22:46:06.268Z,23.07
2022-12-20T22:48:34.177Z,32.77
2022-12-20T22:51:03.861Z,111.67
2022-12-20T22:53:33.743Z,45.67
2022-12-20T22:56:02.530Z,37.70
2022-12-20T22:58:30.694Z,17.37
2022-12-20T23:01:03.427Z,37.93
2022-12-20T23:03:31.782Z,26.23
2022-12-20T23:06:01.678Z,24.57
2022-12-20T23:08:31.748Z,13.00
2022-12-20T23:11:17.818Z,32.13
2022-12-20T23:14:03.937Z,23.73
2022-12-20T23:16:31.413Z,18.77
2022-12-20T23:19:00.384Z,10.27
2022-12-20T23:21:47.309Z,17.87
2022-12-20T23:24:15.212Z,9.53
2022-12-20T23:26:43.365Z,10.27
2022-12-20T23:29:11.658Z,22.23
2022-12-20T23:31:39.003Z,23.70
2022-12-20T23:34:07.158Z,22.60
2022-12-20T23:36:34.853Z,16.07
2022-12-20T23:39:02.795Z,16.83
2022-12-20T23:41:30.220Z,22.27
2022-12-20T23:43:57.691Z,32.23
2022-12-20T23:46:25.754Z,24.50
2022-12-20T23:48:53.783Z,22.60
2022-12-20T23:51:22.081Z,32.37
2022-12-20T23:53:51.419Z,26.97
2022-12-20T23:56:21.051Z,26.83
2022-12-20T23:58:53.659Z,18.50
